sensor_id;sensor_type;location;lat;lon;timestamp;P1;durP1;ratioP1;P2;durP2;ratioP2
83632;SDS011;73595;53.084;6.696;2023-12-29T00:00:26;20.10;;;2.70;;
83632;SDS011;73595;53.084;6.696;2023-12-29T00:02:51;16.13;;;2.90;;
83632;SDS011;73595;53.084;6.696;2023-12-29T00:05:17;15.27;;;2.60;;
83632;SDS011;73595;53.084;6.696;2023-12-29T00:07:42;12.63;;;2.20;;
83632;SDS011;73595;53.084;6.696;2023-12-29T00:10:08;20.35;;;2.53;;
83632;SDS011;73595;53.084;6.696;2023-12-29T00:12:34;15.50;;;2.85;;
83632;SDS011;73595;53.084;6.696;2023-12-29T00:14:59;14.35;;;2.47;;
83632;SDS011;73595;53.084;6.696;2023-12-29T00:17:25;16.20;;;3.05;;
83632;SDS011;73595;53.084;6.696;2023-12-29T00:19:50;17.08;;;2.75;;
83632;SDS011;73595;53.084;6.696;2023-12-29T00:22:16;20.50;;;2.90;;
83632;SDS011;73595;53.084;6.696;2023-12-29T00:24:41;12.32;;;2.42;;
83632;SDS011;73595;53.084;6.696;2023-12-29T00:27:07;16.88;;;2.38;;
83632;SDS011;73595;53.084;6.696;2023-12-29T00:29:33;16.13;;;2.83;;
83632;SDS011;73595;53.084;6.696;2023-12-29T00:31:59;16.25;;;2.78;;
83632;SDS011;73595;53.084;6.696;2023-12-29T00:34:25;15.95;;;2.65;;
83632;SDS011;73595;53.084;6.696;2023-12-29T00:36:51;16.25;;;2.88;;
83632;SDS011;73595;53.084;6.696;2023-12-29T00:39:16;10.13;;;2.17;;
83632;SDS011;73595;53.084;6.696;2023-12-29T00:41:42;17.02;;;2.63;;
83632;SDS011;73595;53.084;6.696;2023-12-29T00:44:07;15.82;;;2.22;;
83632;SDS011;73595;53.084;6.696;2023-12-29T00:46:33;15.73;;;2.70;;
83632;SDS011;73595;53.084;6.696;2023-12-29T00:48:59;9.95;;;2.03;;
83632;SDS011;73595;53.084;6.696;2023-12-29T00:51:24;12.15;;;2.45;;
83632;SDS011;73595;53.084;6.696;2023-12-29T00:53:50;15.73;;;2.45;;
83632;SDS011;73595;53.084;6.696;2023-12-29T00:56:15;18.13;;;2.60;;
83632;SDS011;73595;53.084;6.696;2023-12-29T00:58:41;13.73;;;2.13;;
83632;SDS011;73595;53.084;6.696;2023-12-29T01:01:06;14.68;;;2.50;;
83632;SDS011;73595;53.084;6.696;2023-12-29T01:03:33;12.75;;;2.30;;
83632;SDS011;73595;53.084;6.696;2023-12-29T01:05:59;15.55;;;2.38;;
83632;SDS011;73595;53.084;6.696;2023-12-29T01:08:25;15.80;;;2.20;;
83632;SDS011;73595;53.084;6.696;2023-12-29T01:10:51;15.88;;;2.67;;
83632;SDS011;73595;53.084;6.696;2023-12-29T01:13:16;18.80;;;2.67;;
83632;SDS011;73595;53.084;6.696;2023-12-29T01:15:42;17.50;;;2.95;;
83632;SDS011;73595;53.084;6.696;2023-12-29T01:18:10;19.45;;;2.97;;
83632;SDS011;73595;53.084;6.696;2023-12-29T01:20:36;19.30;;;3.00;;
83632;SDS011;73595;53.084;6.696;2023-12-29T01:23:07;17.10;;;3.20;;
83632;SDS011;73595;53.084;6.696;2023-12-29T01:25:33;17.13;;;2.30;;
83632;SDS011;73595;53.084;6.696;2023-12-29T01:27:58;17.88;;;2.92;;
83632;SDS011;73595;53.084;6.696;2023-12-29T01:30:24;17.33;;;2.88;;
83632;SDS011;73595;53.084;6.696;2023-12-29T01:32:51;25.77;;;3.63;;
83632;SDS011;73595;53.084;6.696;2023-12-29T01:35:16;20.00;;;3.28;;
83632;SDS011;73595;53.084;6.696;2023-12-29T01:37:42;22.30;;;2.90;;
83632;SDS011;73595;53.084;6.696;2023-12-29T01:40:08;15.38;;;2.63;;
83632;SDS011;73595;53.084;6.696;2023-12-29T01:42:33;15.48;;;3.20;;
83632;SDS011;73595;53.084;6.696;2023-12-29T01:45:01;12.40;;;2.40;;
83632;SDS011;73595;53.084;6.696;2023-12-29T01:47:27;8.63;;;1.73;;
83632;SDS011;73595;53.084;6.696;2023-12-29T01:49:53;13.35;;;1.95;;
83632;SDS011;73595;53.084;6.696;2023-12-29T01:52:19;9.25;;;1.80;;
83632;SDS011;73595;53.084;6.696;2023-12-29T01:54:46;14.68;;;1.65;;
83632;SDS011;73595;53.084;6.696;2023-12-29T01:57:15;9.77;;;1.67;;
83632;SDS011;73595;53.084;6.696;2023-12-29T01:59:45;15.23;;;2.30;;
83632;SDS011;73595;53.084;6.696;2023-12-29T02:02:13;20.67;;;3.13;;
83632;SDS011;73595;53.084;6.696;2023-12-29T02:04:40;18.30;;;2.92;;
83632;SDS011;73595;53.084;6.696;2023-12-29T02:07:12;17.85;;;2.80;;
83632;SDS011;73595;53.084;6.696;2023-12-29T02:09:54;5.60;;;0.95;;
83632;SDS011;73595;53.084;6.696;2023-12-29T02:12:20;6.82;;;0.90;;
83632;SDS011;73595;53.084;6.696;2023-12-29T02:14:46;10.25;;;1.30;;
83632;SDS011;73595;53.084;6.696;2023-12-29T02:20:25;13.40;;;1.45;;
83632;SDS011;73595;53.084;6.696;2023-12-29T02:22:58;12.63;;;1.63;;
83632;SDS011;73595;53.084;6.696;2023-12-29T02:25:25;9.90;;;1.60;;
83632;SDS011;73595;53.084;6.696;2023-12-29T02:27:52;9.25;;;1.95;;
83632;SDS011;73595;53.084;6.696;2023-12-29T02:33:00;14.20;;;1.63;;
83632;SDS011;73595;53.084;6.696;2023-12-29T02:35:32;10.88;;;1.60;;
83632;SDS011;73595;53.084;6.696;2023-12-29T02:37:59;12.13;;;1.80;;
83632;SDS011;73595;53.084;6.696;2023-12-29T02:40:27;12.38;;;1.90;;
83632;SDS011;73595;53.084;6.696;2023-12-29T02:42:52;15.85;;;1.80;;
83632;SDS011;73595;53.084;6.696;2023-12-29T02:45:20;17.13;;;2.25;;
83632;SDS011;73595;53.084;6.696;2023-12-29T02:47:49;15.80;;;2.00;;
83632;SDS011;73595;53.084;6.696;2023-12-29T02:50:18;15.80;;;2.30;;
83632;SDS011;73595;53.084;6.696;2023-12-29T02:56:17;16.80;;;2.50;;
83632;SDS011;73595;53.084;6.696;2023-12-29T02:58:43;20.15;;;2.55;;
83632;SDS011;73595;53.084;6.696;2023-12-29T03:01:16;24.77;;;3.28;;
83632;SDS011;73595;53.084;6.696;2023-12-29T03:03:50;18.58;;;3.10;;
83632;SDS011;73595;53.084;6.696;2023-12-29T03:11:56;26.58;;;3.38;;
83632;SDS011;73595;53.084;6.696;2023-12-29T03:17:57;22.48;;;3.25;;
83632;SDS011;73595;53.084;6.696;2023-12-29T03:20:26;19.80;;;3.33;;
83632;SDS011;73595;53.084;6.696;2023-12-29T03:23:14;25.00;;;3.42;;
83632;SDS011;73595;53.084;6.696;2023-12-29T03:25:43;25.17;;;3.50;;
83632;SDS011;73595;53.084;6.696;2023-12-29T03:28:15;26.13;;;3.88;;
83632;SDS011;73595;53.084;6.696;2023-12-29T03:30:46;29.40;;;3.47;;
83632;SDS011;73595;53.084;6.696;2023-12-29T03:33:14;27.33;;;3.70;;
83632;SDS011;73595;53.084;6.696;2023-12-29T03:35:43;38.30;;;4.82;;
83632;SDS011;73595;53.084;6.696;2023-12-29T03:38:09;24.65;;;4.13;;
83632;SDS011;73595;53.084;6.696;2023-12-29T03:40:34;27.80;;;3.67;;
83632;SDS011;73595;53.084;6.696;2023-12-29T03:43:03;19.60;;;3.17;;
83632;SDS011;73595;53.084;6.696;2023-12-29T03:45:29;25.60;;;3.70;;
83632;SDS011;73595;53.084;6.696;2023-12-29T03:47:55;27.70;;;3.85;;
83632;SDS011;73595;53.084;6.696;2023-12-29T03:50:20;28.13;;;3.67;;
83632;SDS011;73595;53.084;6.696;2023-12-29T03:52:48;27.08;;;3.63;;
83632;SDS011;73595;53.084;6.696;2023-12-29T03:58:57;19.35;;;3.25;;
83632;SDS011;73595;53.084;6.696;2023-12-29T04:01:23;26.10;;;3.67;;
83632;SDS011;73595;53.084;6.696;2023-12-29T04:06:28;31.00;;;4.95;;
83632;SDS011;73595;53.084;6.696;2023-12-29T04:08:55;25.20;;;4.15;;
83632;SDS011;73595;53.084;6.696;2023-12-29T04:11:20;31.90;;;4.40;;
83632;SDS011;73595;53.084;6.696;2023-12-29T04:13:52;32.83;;;3.80;;
83632;SDS011;73595;53.084;6.696;2023-12-29T04:16:24;31.55;;;4.32;;
83632;SDS011;73595;53.084;6.696;2023-12-29T04:18:55;28.47;;;3.57;;
83632;SDS011;73595;53.084;6.696;2023-12-29T04:21:24;34.45;;;4.07;;
83632;SDS011;73595;53.084;6.696;2023-12-29T04:23:50;23.52;;;4.20;;
83632;SDS011;73595;53.084;6.696;2023-12-29T04:26:16;29.08;;;4.10;;
83632;SDS011;73595;53.084;6.696;2023-12-29T04:28:50;27.45;;;4.40;;
83632;SDS011;73595;53.084;6.696;2023-12-29T04:31:18;25.98;;;4.22;;
83632;SDS011;73595;53.084;6.696;2023-12-29T04:33:46;40.80;;;4.22;;
83632;SDS011;73595;53.084;6.696;2023-12-29T04:36:12;29.13;;;4.60;;
83632;SDS011;73595;53.084;6.696;2023-12-29T04:38:38;26.52;;;4.28;;
83632;SDS011;73595;53.084;6.696;2023-12-29T04:41:16;40.03;;;4.93;;
83632;SDS011;73595;53.084;6.696;2023-12-29T04:43:42;29.40;;;3.70;;
83632;SDS011;73595;53.084;6.696;2023-12-29T04:46:08;31.80;;;4.35;;
83632;SDS011;73595;53.084;6.696;2023-12-29T04:48:34;36.15;;;4.65;;
83632;SDS011;73595;53.084;6.696;2023-12-29T04:51:08;33.65;;;4.80;;
83632;SDS011;73595;53.084;6.696;2023-12-29T04:53:46;28.63;;;4.78;;
83632;SDS011;73595;53.084;6.696;2023-12-29T04:56:11;28.70;;;4.18;;
83632;SDS011;73595;53.084;6.696;2023-12-29T04:58:39;28.40;;;4.32;;
83632;SDS011;73595;53.084;6.696;2023-12-29T05:01:04;34.33;;;4.47;;
83632;SDS011;73595;53.084;6.696;2023-12-29T05:03:35;18.23;;;3.42;;
83632;SDS011;73595;53.084;6.696;2023-12-29T05:06:01;40.50;;;5.10;;
83632;SDS011;73595;53.084;6.696;2023-12-29T05:08:27;39.10;;;4.30;;
83632;SDS011;73595;53.084;6.696;2023-12-29T05:10:53;38.83;;;4.00;;
83632;SDS011;73595;53.084;6.696;2023-12-29T05:13:18;35.40;;;4.80;;
83632;SDS011;73595;53.084;6.696;2023-12-29T05:15:43;39.92;;;4.63;;
83632;SDS011;73595;53.084;6.696;2023-12-29T05:18:09;44.13;;;4.65;;
83632;SDS011;73595;53.084;6.696;2023-12-29T05:20:34;31.63;;;4.47;;
83632;SDS011;73595;53.084;6.696;2023-12-29T05:23:00;26.70;;;3.22;;
83632;SDS011;73595;53.084;6.696;2023-12-29T05:25:25;37.35;;;4.25;;
83632;SDS011;73595;53.084;6.696;2023-12-29T05:27:51;29.48;;;4.10;;
83632;SDS011;73595;53.084;6.696;2023-12-29T05:30:16;39.00;;;4.82;;
83632;SDS011;73595;53.084;6.696;2023-12-29T05:32:42;30.45;;;4.65;;
83632;SDS011;73595;53.084;6.696;2023-12-29T05:35:07;28.05;;;4.30;;
83632;SDS011;73595;53.084;6.696;2023-12-29T05:37:38;30.77;;;4.30;;
83632;SDS011;73595;53.084;6.696;2023-12-29T05:40:03;25.27;;;3.85;;
83632;SDS011;73595;53.084;6.696;2023-12-29T05:42:29;32.83;;;4.43;;
83632;SDS011;73595;53.084;6.696;2023-12-29T05:44:55;31.23;;;3.67;;
83632;SDS011;73595;53.084;6.696;2023-12-29T05:47:21;30.23;;;4.40;;
83632;SDS011;73595;53.084;6.696;2023-12-29T05:49:46;37.17;;;4.57;;
83632;SDS011;73595;53.084;6.696;2023-12-29T05:52:12;29.67;;;4.20;;
83632;SDS011;73595;53.084;6.696;2023-12-29T05:54:38;30.35;;;3.83;;
83632;SDS011;73595;53.084;6.696;2023-12-29T05:57:03;26.75;;;4.10;;
83632;SDS011;73595;53.084;6.696;2023-12-29T05:59:29;27.60;;;3.53;;
83632;SDS011;73595;53.084;6.696;2023-12-29T06:01:54;30.88;;;4.28;;
83632;SDS011;73595;53.084;6.696;2023-12-29T06:04:21;30.65;;;3.30;;
83632;SDS011;73595;53.084;6.696;2023-12-29T06:06:47;32.17;;;4.05;;
83632;SDS011;73595;53.084;6.696;2023-12-29T06:09:14;26.10;;;4.05;;
83632;SDS011;73595;53.084;6.696;2023-12-29T06:11:40;24.60;;;3.42;;
83632;SDS011;73595;53.084;6.696;2023-12-29T06:14:05;28.17;;;3.67;;
83632;SDS011;73595;53.084;6.696;2023-12-29T06:16:31;23.92;;;3.20;;
83632;SDS011;73595;53.084;6.696;2023-12-29T06:22:26;23.63;;;3.85;;
83632;SDS011;73595;53.084;6.696;2023-12-29T06:24:56;21.95;;;3.70;;
83632;SDS011;73595;53.084;6.696;2023-12-29T06:27:25;27.73;;;3.63;;
83632;SDS011;73595;53.084;6.696;2023-12-29T06:30:04;91.93;;;9.23;;
83632;SDS011;73595;53.084;6.696;2023-12-29T06:32:38;31.30;;;3.50;;
83632;SDS011;73595;53.084;6.696;2023-12-29T06:35:10;27.08;;;3.33;;
83632;SDS011;73595;53.084;6.696;2023-12-29T06:38:17;24.52;;;3.28;;
83632;SDS011;73595;53.084;6.696;2023-12-29T06:45:23;27.35;;;3.33;;
83632;SDS011;73595;53.084;6.696;2023-12-29T06:52:35;24.30;;;3.75;;
83632;SDS011;73595;53.084;6.696;2023-12-29T06:56:23;25.63;;;3.05;;
83632;SDS011;73595;53.084;6.696;2023-12-29T07:01:38;23.25;;;3.85;;
83632;SDS011;73595;53.084;6.696;2023-12-29T07:04:08;29.42;;;3.70;;
83632;SDS011;73595;53.084;6.696;2023-12-29T07:06:38;36.05;;;4.70;;
83632;SDS011;73595;53.084;6.696;2023-12-29T07:09:07;35.78;;;4.25;;
83632;SDS011;73595;53.084;6.696;2023-12-29T07:11:35;36.63;;;4.22;;
83632;SDS011;73595;53.084;6.696;2023-12-29T07:14:10;29.80;;;4.35;;
83632;SDS011;73595;53.084;6.696;2023-12-29T07:17:33;38.40;;;4.43;;
83632;SDS011;73595;53.084;6.696;2023-12-29T07:20:44;36.75;;;4.00;;
83632;SDS011;73595;53.084;6.696;2023-12-29T07:35:06;33.83;;;4.18;;
83632;SDS011;73595;53.084;6.696;2023-12-29T07:41:18;37.47;;;4.07;;
83632;SDS011;73595;53.084;6.696;2023-12-29T07:44:58;34.30;;;4.97;;
83632;SDS011;73595;53.084;6.696;2023-12-29T07:48:52;32.97;;;4.40;;
83632;SDS011;73595;53.084;6.696;2023-12-29T07:55:32;41.13;;;4.50;;
83632;SDS011;73595;53.084;6.696;2023-12-29T07:58:39;44.15;;;5.32;;
83632;SDS011;73595;53.084;6.696;2023-12-29T08:01:44;38.20;;;4.85;;
83632;SDS011;73595;53.084;6.696;2023-12-29T08:04:25;36.72;;;4.82;;
83632;SDS011;73595;53.084;6.696;2023-12-29T08:10:44;43.83;;;4.78;;
83632;SDS011;73595;53.084;6.696;2023-12-29T08:18:13;29.08;;;3.92;;
83632;SDS011;73595;53.084;6.696;2023-12-29T08:28:29;32.30;;;4.63;;
83632;SDS011;73595;53.084;6.696;2023-12-29T08:34:34;27.63;;;4.30;;
83632;SDS011;73595;53.084;6.696;2023-12-29T08:38:20;33.22;;;3.78;;
83632;SDS011;73595;53.084;6.696;2023-12-29T08:41:08;40.83;;;7.05;;
83632;SDS011;73595;53.084;6.696;2023-12-29T08:44:17;28.85;;;3.85;;
83632;SDS011;73595;53.084;6.696;2023-12-29T08:50:51;21.33;;;3.47;;
83632;SDS011;73595;53.084;6.696;2023-12-29T08:57:49;31.13;;;3.85;;
83632;SDS011;73595;53.084;6.696;2023-12-29T09:00:14;20.67;;;3.47;;
83632;SDS011;73595;53.084;6.696;2023-12-29T09:02:40;40.63;;;4.93;;
83632;SDS011;73595;53.084;6.696;2023-12-29T09:05:06;36.95;;;4.38;;
83632;SDS011;73595;53.084;6.696;2023-12-29T09:07:32;35.17;;;4.80;;
83632;SDS011;73595;53.084;6.696;2023-12-29T09:09:59;35.53;;;4.53;;
83632;SDS011;73595;53.084;6.696;2023-12-29T09:12:27;39.42;;;5.13;;
83632;SDS011;73595;53.084;6.696;2023-12-29T09:14:53;30.25;;;4.47;;
83632;SDS011;73595;53.084;6.696;2023-12-29T09:17:18;32.55;;;4.47;;
83632;SDS011;73595;53.084;6.696;2023-12-29T09:19:43;33.90;;;4.43;;
83632;SDS011;73595;53.084;6.696;2023-12-29T09:22:09;39.60;;;4.70;;
83632;SDS011;73595;53.084;6.696;2023-12-29T09:24:35;36.08;;;5.25;;
83632;SDS011;73595;53.084;6.696;2023-12-29T09:27:00;33.65;;;4.30;;
83632;SDS011;73595;53.084;6.696;2023-12-29T09:29:26;28.23;;;3.72;;
83632;SDS011;73595;53.084;6.696;2023-12-29T09:31:51;35.22;;;4.50;;
83632;SDS011;73595;53.084;6.696;2023-12-29T09:34:17;33.78;;;4.63;;
83632;SDS011;73595;53.084;6.696;2023-12-29T09:36:43;36.05;;;5.32;;
83632;SDS011;73595;53.084;6.696;2023-12-29T09:39:08;38.50;;;4.97;;
83632;SDS011;73595;53.084;6.696;2023-12-29T09:41:34;27.52;;;3.50;;
83632;SDS011;73595;53.084;6.696;2023-12-29T09:44:13;37.53;;;4.35;;
83632;SDS011;73595;53.084;6.696;2023-12-29T09:46:39;29.98;;;4.85;;
83632;SDS011;73595;53.084;6.696;2023-12-29T09:49:07;30.10;;;4.22;;
83632;SDS011;73595;53.084;6.696;2023-12-29T09:51:34;24.17;;;3.22;;
83632;SDS011;73595;53.084;6.696;2023-12-29T09:54:01;24.70;;;3.35;;
83632;SDS011;73595;53.084;6.696;2023-12-29T09:56:27;25.92;;;3.13;;
83632;SDS011;73595;53.084;6.696;2023-12-29T09:58:53;32.22;;;4.30;;
83632;SDS011;73595;53.084;6.696;2023-12-29T10:01:19;24.35;;;3.33;;
83632;SDS011;73595;53.084;6.696;2023-12-29T10:03:47;38.05;;;4.78;;
83632;SDS011;73595;53.084;6.696;2023-12-29T10:06:23;36.30;;;4.60;;
83632;SDS011;73595;53.084;6.696;2023-12-29T10:08:50;30.00;;;4.60;;
83632;SDS011;73595;53.084;6.696;2023-12-29T10:11:21;34.95;;;4.82;;
83632;SDS011;73595;53.084;6.696;2023-12-29T10:13:51;35.90;;;4.40;;
83632;SDS011;73595;53.084;6.696;2023-12-29T10:19:18;31.27;;;3.85;;
83632;SDS011;73595;53.084;6.696;2023-12-29T10:22:46;23.33;;;3.53;;
83632;SDS011;73595;53.084;6.696;2023-12-29T10:24:53;29.60;;;4.38;;
83632;SDS011;73595;53.084;6.696;2023-12-29T10:27:25;28.30;;;3.60;;
83632;SDS011;73595;53.084;6.696;2023-12-29T10:29:51;42.50;;;5.40;;
83632;SDS011;73595;53.084;6.696;2023-12-29T10:32:17;31.63;;;4.07;;
83632;SDS011;73595;53.084;6.696;2023-12-29T10:34:43;24.40;;;3.67;;
83632;SDS011;73595;53.084;6.696;2023-12-29T10:37:08;24.05;;;3.97;;
83632;SDS011;73595;53.084;6.696;2023-12-29T10:39:38;21.98;;;3.45;;
83632;SDS011;73595;53.084;6.696;2023-12-29T10:42:05;24.80;;;3.90;;
83632;SDS011;73595;53.084;6.696;2023-12-29T10:44:34;22.48;;;3.30;;
83632;SDS011;73595;53.084;6.696;2023-12-29T10:47:08;33.72;;;3.17;;
83632;SDS011;73595;53.084;6.696;2023-12-29T10:49:35;18.45;;;2.92;;
83632;SDS011;73595;53.084;6.696;2023-12-29T10:52:10;24.95;;;3.85;;
83632;SDS011;73595;53.084;6.696;2023-12-29T10:54:38;23.80;;;3.03;;
83632;SDS011;73595;53.084;6.696;2023-12-29T10:57:03;27.40;;;3.33;;
83632;SDS011;73595;53.084;6.696;2023-12-29T10:59:29;26.38;;;3.10;;
83632;SDS011;73595;53.084;6.696;2023-12-29T11:01:55;25.65;;;3.70;;
83632;SDS011;73595;53.084;6.696;2023-12-29T11:04:21;24.17;;;3.42;;
83632;SDS011;73595;53.084;6.696;2023-12-29T11:06:48;20.00;;;2.40;;
83632;SDS011;73595;53.084;6.696;2023-12-29T11:09:26;26.27;;;3.17;;
83632;SDS011;73595;53.084;6.696;2023-12-29T11:11:53;24.77;;;2.88;;
83632;SDS011;73595;53.084;6.696;2023-12-29T11:14:21;23.15;;;2.95;;
83632;SDS011;73595;53.084;6.696;2023-12-29T11:16:47;35.60;;;4.32;;
83632;SDS011;73595;53.084;6.696;2023-12-29T11:19:15;28.50;;;3.70;;
83632;SDS011;73595;53.084;6.696;2023-12-29T11:21:42;18.63;;;2.63;;
83632;SDS011;73595;53.084;6.696;2023-12-29T11:24:10;25.17;;;3.40;;
83632;SDS011;73595;53.084;6.696;2023-12-29T11:26:36;27.30;;;3.60;;
83632;SDS011;73595;53.084;6.696;2023-12-29T11:29:03;34.20;;;3.75;;
83632;SDS011;73595;53.084;6.696;2023-12-29T11:31:29;27.55;;;3.60;;
83632;SDS011;73595;53.084;6.696;2023-12-29T11:33:57;24.98;;;3.55;;
83632;SDS011;73595;53.084;6.696;2023-12-29T11:36:38;18.05;;;2.80;;
83632;SDS011;73595;53.084;6.696;2023-12-29T11:39:14;15.73;;;2.50;;
83632;SDS011;73595;53.084;6.696;2023-12-29T11:41:54;20.98;;;3.05;;
83632;SDS011;73595;53.084;6.696;2023-12-29T11:44:27;22.00;;;2.70;;
83632;SDS011;73595;53.084;6.696;2023-12-29T11:47:01;22.38;;;2.70;;
83632;SDS011;73595;53.084;6.696;2023-12-29T11:52:33;20.15;;;2.22;;
83632;SDS011;73595;53.084;6.696;2023-12-29T11:55:07;21.55;;;2.85;;
83632;SDS011;73595;53.084;6.696;2023-12-29T11:57:34;17.60;;;2.45;;
83632;SDS011;73595;53.084;6.696;2023-12-29T12:00:01;20.00;;;2.50;;
83632;SDS011;73595;53.084;6.696;2023-12-29T12:02:30;20.33;;;2.20;;
83632;SDS011;73595;53.084;6.696;2023-12-29T12:04:56;18.80;;;3.35;;
83632;SDS011;73595;53.084;6.696;2023-12-29T12:09:47;17.27;;;2.25;;
83632;SDS011;73595;53.084;6.696;2023-12-29T12:12:14;18.38;;;2.60;;
83632;SDS011;73595;53.084;6.696;2023-12-29T12:15:54;23.85;;;2.75;;
83632;SDS011;73595;53.084;6.696;2023-12-29T12:17:55;15.23;;;2.40;;
83632;SDS011;73595;53.084;6.696;2023-12-29T12:20:21;20.38;;;3.00;;
83632;SDS011;73595;53.084;6.696;2023-12-29T12:22:54;18.30;;;2.38;;
83632;SDS011;73595;53.084;6.696;2023-12-29T12:25:21;16.55;;;2.78;;
83632;SDS011;73595;53.084;6.696;2023-12-29T12:27:47;22.05;;;2.60;;
83632;SDS011;73595;53.084;6.696;2023-12-29T12:30:17;19.77;;;2.58;;
83632;SDS011;73595;53.084;6.696;2023-12-29T12:32:43;16.48;;;2.72;;
83632;SDS011;73595;53.084;6.696;2023-12-29T12:35:15;25.95;;;3.47;;
83632;SDS011;73595;53.084;6.696;2023-12-29T12:37:41;19.15;;;2.50;;
83632;SDS011;73595;53.084;6.696;2023-12-29T12:40:07;28.73;;;2.90;;
83632;SDS011;73595;53.084;6.696;2023-12-29T12:42:34;16.38;;;2.40;;
83632;SDS011;73595;53.084;6.696;2023-12-29T12:45:11;17.55;;;2.30;;
83632;SDS011;73595;53.084;6.696;2023-12-29T12:47:43;13.65;;;2.33;;
83632;SDS011;73595;53.084;6.696;2023-12-29T12:50:11;21.88;;;3.58;;
83632;SDS011;73595;53.084;6.696;2023-12-29T12:52:37;23.17;;;3.25;;
83632;SDS011;73595;53.084;6.696;2023-12-29T12:55:04;29.80;;;3.60;;
83632;SDS011;73595;53.084;6.696;2023-12-29T12:57:31;20.33;;;3.40;;
83632;SDS011;73595;53.084;6.696;2023-12-29T12:59:58;22.77;;;3.20;;
83632;SDS011;73595;53.084;6.696;2023-12-29T13:02:25;21.13;;;2.90;;
83632;SDS011;73595;53.084;6.696;2023-12-29T13:04:52;20.60;;;2.88;;
83632;SDS011;73595;53.084;6.696;2023-12-29T13:07:18;15.13;;;2.35;;
83632;SDS011;73595;53.084;6.696;2023-12-29T13:09:51;16.13;;;2.40;;
83632;SDS011;73595;53.084;6.696;2023-12-29T13:12:18;22.17;;;3.13;;
83632;SDS011;73595;53.084;6.696;2023-12-29T13:14:44;21.73;;;3.00;;
83632;SDS011;73595;53.084;6.696;2023-12-29T13:17:14;19.35;;;2.67;;
83632;SDS011;73595;53.084;6.696;2023-12-29T13:19:42;19.40;;;3.85;;
83632;SDS011;73595;53.084;6.696;2023-12-29T13:22:09;21.73;;;2.80;;
83632;SDS011;73595;53.084;6.696;2023-12-29T13:24:45;30.50;;;3.50;;
83632;SDS011;73595;53.084;6.696;2023-12-29T13:27:12;22.45;;;2.95;;
83632;SDS011;73595;53.084;6.696;2023-12-29T13:29:38;17.75;;;2.63;;
83632;SDS011;73595;53.084;6.696;2023-12-29T13:32:15;19.55;;;2.80;;
83632;SDS011;73595;53.084;6.696;2023-12-29T13:34:51;19.55;;;3.28;;
83632;SDS011;73595;53.084;6.696;2023-12-29T13:37:24;18.13;;;2.45;;
83632;SDS011;73595;53.084;6.696;2023-12-29T13:39:52;23.65;;;2.85;;
83632;SDS011;73595;53.084;6.696;2023-12-29T13:42:22;21.67;;;2.85;;
83632;SDS011;73595;53.084;6.696;2023-12-29T13:44:50;17.35;;;2.28;;
83632;SDS011;73595;53.084;6.696;2023-12-29T13:47:17;20.73;;;2.30;;
83632;SDS011;73595;53.084;6.696;2023-12-29T13:49:42;20.45;;;2.25;;
83632;SDS011;73595;53.084;6.696;2023-12-29T13:52:08;19.77;;;2.88;;
83632;SDS011;73595;53.084;6.696;2023-12-29T13:54:43;18.27;;;3.08;;
83632;SDS011;73595;53.084;6.696;2023-12-29T13:57:08;16.90;;;2.60;;
83632;SDS011;73595;53.084;6.696;2023-12-29T13:59:34;15.82;;;2.60;;
83632;SDS011;73595;53.084;6.696;2023-12-29T14:04:48;15.98;;;2.20;;
83632;SDS011;73595;53.084;6.696;2023-12-29T14:07:15;21.08;;;2.35;;
83632;SDS011;73595;53.084;6.696;2023-12-29T14:09:46;17.33;;;2.38;;
83632;SDS011;73595;53.084;6.696;2023-12-29T14:12:12;23.42;;;3.03;;
83632;SDS011;73595;53.084;6.696;2023-12-29T14:14:38;22.42;;;2.80;;
83632;SDS011;73595;53.084;6.696;2023-12-29T14:17:04;17.90;;;2.53;;
83632;SDS011;73595;53.084;6.696;2023-12-29T14:19:35;20.10;;;2.65;;
83632;SDS011;73595;53.084;6.696;2023-12-29T14:22:02;18.00;;;2.25;;
83632;SDS011;73595;53.084;6.696;2023-12-29T14:24:27;18.42;;;2.72;;
83632;SDS011;73595;53.084;6.696;2023-12-29T14:26:54;18.27;;;2.28;;
83632;SDS011;73595;53.084;6.696;2023-12-29T14:29:24;16.50;;;2.92;;
83632;SDS011;73595;53.084;6.696;2023-12-29T14:31:50;14.45;;;1.92;;
83632;SDS011;73595;53.084;6.696;2023-12-29T14:34:21;17.67;;;2.45;;
83632;SDS011;73595;53.084;6.696;2023-12-29T14:36:47;24.48;;;2.97;;
83632;SDS011;73595;53.084;6.696;2023-12-29T14:39:12;19.27;;;2.72;;
83632;SDS011;73595;53.084;6.696;2023-12-29T14:41:38;22.33;;;2.65;;
83632;SDS011;73595;53.084;6.696;2023-12-29T14:44:04;17.95;;;2.80;;
83632;SDS011;73595;53.084;6.696;2023-12-29T14:46:31;19.42;;;2.40;;
83632;SDS011;73595;53.084;6.696;2023-12-29T14:48:59;22.45;;;2.50;;
83632;SDS011;73595;53.084;6.696;2023-12-29T14:51:24;21.08;;;2.95;;
83632;SDS011;73595;53.084;6.696;2023-12-29T14:53:50;18.95;;;2.63;;
83632;SDS011;73595;53.084;6.696;2023-12-29T14:56:16;15.90;;;2.60;;
83632;SDS011;73595;53.084;6.696;2023-12-29T14:58:42;20.92;;;2.95;;
83632;SDS011;73595;53.084;6.696;2023-12-29T15:01:08;17.27;;;2.55;;
83632;SDS011;73595;53.084;6.696;2023-12-29T15:03:34;17.98;;;2.28;;
83632;SDS011;73595;53.084;6.696;2023-12-29T15:06:03;20.42;;;2.95;;
83632;SDS011;73595;53.084;6.696;2023-12-29T15:08:29;20.15;;;2.80;;
83632;SDS011;73595;53.084;6.696;2023-12-29T15:11:03;21.42;;;2.97;;
83632;SDS011;73595;53.084;6.696;2023-12-29T15:13:30;15.45;;;2.35;;
83632;SDS011;73595;53.084;6.696;2023-12-29T15:15:56;25.15;;;3.30;;
83632;SDS011;73595;53.084;6.696;2023-12-29T15:18:31;19.50;;;2.80;;
83632;SDS011;73595;53.084;6.696;2023-12-29T15:20:57;16.95;;;2.97;;
83632;SDS011;73595;53.084;6.696;2023-12-29T15:23:24;22.23;;;2.63;;
83632;SDS011;73595;53.084;6.696;2023-12-29T15:25:49;18.15;;;2.40;;
83632;SDS011;73595;53.084;6.696;2023-12-29T15:28:15;19.60;;;2.75;;
83632;SDS011;73595;53.084;6.696;2023-12-29T15:30:42;17.40;;;2.47;;
83632;SDS011;73595;53.084;6.696;2023-12-29T15:33:08;19.50;;;2.92;;
83632;SDS011;73595;53.084;6.696;2023-12-29T15:35:33;22.02;;;3.00;;
83632;SDS011;73595;53.084;6.696;2023-12-29T15:37:59;26.95;;;3.35;;
83632;SDS011;73595;53.084;6.696;2023-12-29T15:40:24;16.55;;;2.45;;
83632;SDS011;73595;53.084;6.696;2023-12-29T15:42:50;20.35;;;2.83;;
83632;SDS011;73595;53.084;6.696;2023-12-29T15:45:15;18.17;;;2.67;;
83632;SDS011;73595;53.084;6.696;2023-12-29T15:47:43;21.75;;;2.70;;
83632;SDS011;73595;53.084;6.696;2023-12-29T15:50:09;17.30;;;2.53;;
83632;SDS011;73595;53.084;6.696;2023-12-29T15:52:35;18.25;;;2.88;;
83632;SDS011;73595;53.084;6.696;2023-12-29T15:55:00;13.10;;;2.50;;
83632;SDS011;73595;53.084;6.696;2023-12-29T15:57:26;27.00;;;3.10;;
83632;SDS011;73595;53.084;6.696;2023-12-29T15:59:51;20.33;;;3.15;;
83632;SDS011;73595;53.084;6.696;2023-12-29T16:02:17;25.40;;;2.85;;
83632;SDS011;73595;53.084;6.696;2023-12-29T16:04:43;17.42;;;2.88;;
83632;SDS011;73595;53.084;6.696;2023-12-29T16:07:09;14.68;;;2.53;;
83632;SDS011;73595;53.084;6.696;2023-12-29T16:09:36;16.05;;;2.20;;
83632;SDS011;73595;53.084;6.696;2023-12-29T16:12:01;21.92;;;2.85;;
83632;SDS011;73595;53.084;6.696;2023-12-29T16:14:29;20.17;;;2.67;;
83632;SDS011;73595;53.084;6.696;2023-12-29T16:17:21;20.08;;;2.45;;
83632;SDS011;73595;53.084;6.696;2023-12-29T16:20:56;19.65;;;2.92;;
83632;SDS011;73595;53.084;6.696;2023-12-29T16:23:31;15.68;;;2.08;;
83632;SDS011;73595;53.084;6.696;2023-12-29T16:25:57;21.90;;;2.80;;
83632;SDS011;73595;53.084;6.696;2023-12-29T16:28:53;22.23;;;3.20;;
83632;SDS011;73595;53.084;6.696;2023-12-29T16:31:31;17.90;;;2.15;;